sensor_id;sensor_type;location;lat;lon;timestamp;P1;durP1;ratioP1;P2;durP2;ratioP2
24547;SDS011;12713;51.624;4.924;2023-10-09T00:02:09;33.08;;;19.80;;
24547;SDS011;12713;51.624;4.924;2023-10-09T00:04:36;30.90;;;19.90;;
24547;SDS011;12713;51.624;4.924;2023-10-09T00:07:03;31.55;;;19.58;;
24547;SDS011;12713;51.624;4.924;2023-10-09T00:09:33;32.13;;;21.52;;
24547;SDS011;12713;51.624;4.924;2023-10-09T00:12:11;32.15;;;22.65;;
24547;SDS011;12713;51.624;4.924;2023-10-09T00:14:37;34.55;;;20.90;;
24547;SDS011;12713;51.624;4.924;2023-10-09T00:17:04;31.45;;;19.10;;
24547;SDS011;12713;51.624;4.924;2023-10-09T00:19:43;27.38;;;16.98;;
24547;SDS011;12713;51.624;4.924;2023-10-09T00:22:09;33.58;;;19.42;;
24547;SDS011;12713;51.624;4.924;2023-10-09T00:25:04;31.48;;;19.70;;
24547;SDS011;12713;51.624;4.924;2023-10-09T00:27:40;36.60;;;22.60;;
24547;SDS011;12713;51.624;4.924;2023-10-09T00:30:07;29.27;;;18.75;;
24547;SDS011;12713;51.624;4.924;2023-10-09T00:32:34;30.88;;;18.30;;
24547;SDS011;12713;51.624;4.924;2023-10-09T00:35:02;29.10;;;19.30;;
24547;SDS011;12713;51.624;4.924;2023-10-09T00:37:47;22.50;;;15.65;;
24547;SDS011;12713;51.624;4.924;2023-10-09T00:40:16;28.65;;;17.73;;
24547;SDS011;12713;51.624;4.924;2023-10-09T00:42:47;25.90;;;16.38;;
24547;SDS011;12713;51.624;4.924;2023-10-09T00:45:13;27.38;;;18.13;;
24547;SDS011;12713;51.624;4.924;2023-10-09T00:47:50;30.23;;;18.85;;
24547;SDS011;12713;51.624;4.924;2023-10-09T00:50:21;27.48;;;18.05;;
24547;SDS011;12713;51.624;4.924;2023-10-09T00:52:52;26.67;;;17.55;;
24547;SDS011;12713;51.624;4.924;2023-10-09T00:55:31;22.55;;;16.25;;
24547;SDS011;12713;51.624;4.924;2023-10-09T00:58:14;32.47;;;17.60;;
24547;SDS011;12713;51.624;4.924;2023-10-09T01:00:48;29.67;;;16.40;;
24547;SDS011;12713;51.624;4.924;2023-10-09T01:03:15;24.02;;;16.52;;
24547;SDS011;12713;51.624;4.924;2023-10-09T01:05:41;26.05;;;14.73;;
24547;SDS011;12713;51.624;4.924;2023-10-09T01:08:21;22.48;;;16.42;;
24547;SDS011;12713;51.624;4.924;2023-10-09T01:10:54;26.48;;;16.10;;
24547;SDS011;12713;51.624;4.924;2023-10-09T01:13:34;24.35;;;13.18;;
24547;SDS011;12713;51.624;4.924;2023-10-09T01:16:33;26.88;;;15.20;;
24547;SDS011;12713;51.624;4.924;2023-10-09T01:18:59;23.00;;;15.65;;
24547;SDS011;12713;51.624;4.924;2023-10-09T01:21:31;27.20;;;15.77;;
24547;SDS011;12713;51.624;4.924;2023-10-09T01:23:57;24.30;;;16.65;;
24547;SDS011;12713;51.624;4.924;2023-10-09T01:26:33;23.55;;;15.70;;
24547;SDS011;12713;51.624;4.924;2023-10-09T01:29:07;24.17;;;15.32;;
24547;SDS011;12713;51.624;4.924;2023-10-09T01:31:39;24.83;;;15.93;;
24547;SDS011;12713;51.624;4.924;2023-10-09T01:34:09;24.95;;;15.32;;
24547;SDS011;12713;51.624;4.924;2023-10-09T01:36:37;26.95;;;17.23;;
24547;SDS011;12713;51.624;4.924;2023-10-09T01:39:04;22.20;;;15.02;;
24547;SDS011;12713;51.624;4.924;2023-10-09T01:41:47;22.77;;;13.60;;
24547;SDS011;12713;51.624;4.924;2023-10-09T01:44:14;23.55;;;15.75;;
24547;SDS011;12713;51.624;4.924;2023-10-09T01:46:41;23.42;;;15.15;;
24547;SDS011;12713;51.624;4.924;2023-10-09T01:49:11;22.05;;;14.77;;
24547;SDS011;12713;51.624;4.924;2023-10-09T01:51:43;28.67;;;15.85;;
24547;SDS011;12713;51.624;4.924;2023-10-09T01:54:09;26.98;;;16.38;;
24547;SDS011;12713;51.624;4.924;2023-10-09T01:56:42;22.45;;;14.30;;
24547;SDS011;12713;51.624;4.924;2023-10-09T01:59:14;22.13;;;14.32;;
24547;SDS011;12713;51.624;4.924;2023-10-09T02:01:43;19.83;;;14.63;;
24547;SDS011;12713;51.624;4.924;2023-10-09T02:04:12;20.60;;;12.52;;
24547;SDS011;12713;51.624;4.924;2023-10-09T02:06:40;22.77;;;14.73;;
24547;SDS011;12713;51.624;4.924;2023-10-09T02:09:06;20.67;;;13.50;;
24547;SDS011;12713;51.624;4.924;2023-10-09T02:11:32;28.73;;;16.23;;
24547;SDS011;12713;51.624;4.924;2023-10-09T02:14:04;25.38;;;15.68;;
24547;SDS011;12713;51.624;4.924;2023-10-09T02:16:44;24.38;;;15.98;;
24547;SDS011;12713;51.624;4.924;2023-10-09T02:19:12;21.60;;;14.07;;
24547;SDS011;12713;51.624;4.924;2023-10-09T02:22:03;24.33;;;16.23;;
24547;SDS011;12713;51.624;4.924;2023-10-09T02:24:39;25.35;;;16.88;;
24547;SDS011;12713;51.624;4.924;2023-10-09T02:27:18;28.80;;;15.32;;
24547;SDS011;12713;51.624;4.924;2023-10-09T02:30:06;22.23;;;13.18;;
24547;SDS011;12713;51.624;4.924;2023-10-09T02:32:45;21.98;;;14.88;;
24547;SDS011;12713;51.624;4.924;2023-10-09T02:35:17;23.33;;;15.55;;
24547;SDS011;12713;51.624;4.924;2023-10-09T02:37:53;19.95;;;14.20;;
24547;SDS011;12713;51.624;4.924;2023-10-09T02:40:19;26.40;;;17.38;;
24547;SDS011;12713;51.624;4.924;2023-10-09T02:42:54;26.52;;;16.20;;
24547;SDS011;12713;51.624;4.924;2023-10-09T02:45:20;22.27;;;14.85;;
24547;SDS011;12713;51.624;4.924;2023-10-09T02:47:54;23.88;;;16.95;;
24547;SDS011;12713;51.624;4.924;2023-10-09T02:50:21;27.15;;;17.33;;
24547;SDS011;12713;51.624;4.924;2023-10-09T02:52:48;24.90;;;16.38;;
24547;SDS011;12713;51.624;4.924;2023-10-09T02:55:24;23.17;;;16.15;;
24547;SDS011;12713;51.624;4.924;2023-10-09T02:57:55;24.25;;;16.67;;
24547;SDS011;12713;51.624;4.924;2023-10-09T03:00:31;28.10;;;19.20;;
24547;SDS011;12713;51.624;4.924;2023-10-09T03:03:01;25.70;;;17.33;;
24547;SDS011;12713;51.624;4.924;2023-10-09T03:05:31;27.73;;;18.20;;
24547;SDS011;12713;51.624;4.924;2023-10-09T03:07:57;27.33;;;15.13;;
24547;SDS011;12713;51.624;4.924;2023-10-09T03:10:24;30.90;;;17.95;;
24547;SDS011;12713;51.624;4.924;2023-10-09T03:12:50;29.90;;;19.10;;
24547;SDS011;12713;51.624;4.924;2023-10-09T03:15:21;28.58;;;18.25;;
24547;SDS011;12713;51.624;4.924;2023-10-09T03:17:47;28.90;;;17.25;;
24547;SDS011;12713;51.624;4.924;2023-10-09T03:20:14;31.88;;;18.60;;
24547;SDS011;12713;51.624;4.924;2023-10-09T03:22:42;28.35;;;18.55;;
24547;SDS011;12713;51.624;4.924;2023-10-09T03:25:09;28.23;;;17.35;;
24547;SDS011;12713;51.624;4.924;2023-10-09T03:27:45;29.15;;;18.10;;
24547;SDS011;12713;51.624;4.924;2023-10-09T03:30:14;20.08;;;13.35;;
24547;SDS011;12713;51.624;4.924;2023-10-09T03:32:55;22.67;;;13.95;;
24547;SDS011;12713;51.624;4.924;2023-10-09T03:35:24;27.88;;;16.70;;
24547;SDS011;12713;51.624;4.924;2023-10-09T03:37:57;28.98;;;17.08;;
24547;SDS011;12713;51.624;4.924;2023-10-09T03:40:25;27.20;;;16.90;;
24547;SDS011;12713;51.624;4.924;2023-10-09T03:42:52;29.50;;;15.93;;
24547;SDS011;12713;51.624;4.924;2023-10-09T03:45:21;28.23;;;17.33;;
24547;SDS011;12713;51.624;4.924;2023-10-09T03:47:52;30.27;;;19.02;;
24547;SDS011;12713;51.624;4.924;2023-10-09T03:50:26;26.70;;;17.98;;
24547;SDS011;12713;51.624;4.924;2023-10-09T03:52:55;26.17;;;17.23;;
24547;SDS011;12713;51.624;4.924;2023-10-09T03:55:25;28.08;;;17.67;;
24547;SDS011;12713;51.624;4.924;2023-10-09T03:57:54;31.08;;;18.17;;
24547;SDS011;12713;51.624;4.924;2023-10-09T04:00:22;33.38;;;19.60;;
24547;SDS011;12713;51.624;4.924;2023-10-09T04:03:06;29.98;;;18.33;;
24547;SDS011;12713;51.624;4.924;2023-10-09T04:05:32;26.35;;;15.07;;
24547;SDS011;12713;51.624;4.924;2023-10-09T04:07:58;27.35;;;17.65;;
24547;SDS011;12713;51.624;4.924;2023-10-09T04:10:26;27.42;;;18.45;;
24547;SDS011;12713;51.624;4.924;2023-10-09T04:13:11;32.30;;;19.92;;
24547;SDS011;12713;51.624;4.924;2023-10-09T04:15:41;30.67;;;18.35;;
24547;SDS011;12713;51.624;4.924;2023-10-09T04:18:07;32.95;;;18.95;;
24547;SDS011;12713;51.624;4.924;2023-10-09T04:20:40;31.20;;;18.73;;
24547;SDS011;12713;51.624;4.924;2023-10-09T04:23:12;28.55;;;18.25;;
24547;SDS011;12713;51.624;4.924;2023-10-09T04:25:41;28.07;;;19.17;;
24547;SDS011;12713;51.624;4.924;2023-10-09T04:28:08;36.05;;;20.80;;
24547;SDS011;12713;51.624;4.924;2023-10-09T04:30:43;27.92;;;18.40;;
24547;SDS011;12713;51.624;4.924;2023-10-09T04:33:14;30.98;;;20.67;;
24547;SDS011;12713;51.624;4.924;2023-10-09T04:36:03;30.13;;;19.70;;
24547;SDS011;12713;51.624;4.924;2023-10-09T04:38:45;29.73;;;18.05;;
24547;SDS011;12713;51.624;4.924;2023-10-09T04:41:46;30.05;;;17.90;;
24547;SDS011;12713;51.624;4.924;2023-10-09T04:44:12;33.92;;;19.05;;
24547;SDS011;12713;51.624;4.924;2023-10-09T04:46:45;32.67;;;19.70;;
24547;SDS011;12713;51.624;4.924;2023-10-09T04:49:29;30.60;;;20.45;;
24547;SDS011;12713;51.624;4.924;2023-10-09T04:51:59;30.40;;;19.58;;
24547;SDS011;12713;51.624;4.924;2023-10-09T04:54:34;35.67;;;18.90;;
24547;SDS011;12713;51.624;4.924;2023-10-09T04:57:29;31.88;;;18.13;;
24547;SDS011;12713;51.624;4.924;2023-10-09T05:00:06;40.50;;;20.75;;
24547;SDS011;12713;51.624;4.924;2023-10-09T05:02:47;29.45;;;16.63;;
24547;SDS011;12713;51.624;4.924;2023-10-09T05:05:19;31.33;;;18.67;;
24547;SDS011;12713;51.624;4.924;2023-10-09T05:08:04;25.92;;;17.10;;
24547;SDS011;12713;51.624;4.924;2023-10-09T05:10:46;28.38;;;17.25;;
24547;SDS011;12713;51.624;4.924;2023-10-09T05:13:28;28.48;;;19.08;;
24547;SDS011;12713;51.624;4.924;2023-10-09T05:16:24;30.85;;;19.17;;
24547;SDS011;12713;51.624;4.924;2023-10-09T05:18:58;28.63;;;17.00;;
24547;SDS011;12713;51.624;4.924;2023-10-09T05:23:57;31.60;;;19.13;;
24547;SDS011;12713;51.624;4.924;2023-10-09T05:31:57;35.10;;;20.48;;
24547;SDS011;12713;51.624;4.924;2023-10-09T05:34:38;35.17;;;20.75;;
24547;SDS011;12713;51.624;4.924;2023-10-09T05:37:23;36.67;;;20.05;;
24547;SDS011;12713;51.624;4.924;2023-10-09T05:39:53;43.25;;;20.52;;
24547;SDS011;12713;51.624;4.924;2023-10-09T05:42:34;32.72;;;20.17;;
24547;SDS011;12713;51.624;4.924;2023-10-09T05:45:07;40.25;;;22.38;;
24547;SDS011;12713;51.624;4.924;2023-10-09T05:50:27;31.60;;;18.83;;
24547;SDS011;12713;51.624;4.924;2023-10-09T05:52:55;39.95;;;21.83;;
24547;SDS011;12713;51.624;4.924;2023-10-09T05:55:25;33.05;;;20.65;;
24547;SDS011;12713;51.624;4.924;2023-10-09T05:58:10;40.50;;;20.88;;
24547;SDS011;12713;51.624;4.924;2023-10-09T06:00:57;30.63;;;18.48;;
24547;SDS011;12713;51.624;4.924;2023-10-09T06:03:42;37.85;;;22.48;;
24547;SDS011;12713;51.624;4.924;2023-10-09T06:06:17;30.87;;;19.67;;
24547;SDS011;12713;51.624;4.924;2023-10-09T06:09:02;39.75;;;21.95;;
24547;SDS011;12713;51.624;4.924;2023-10-09T06:11:46;37.75;;;19.55;;
24547;SDS011;12713;51.624;4.924;2023-10-09T06:14:35;35.53;;;19.25;;
24547;SDS011;12713;51.624;4.924;2023-10-09T06:17:01;42.35;;;21.27;;
24547;SDS011;12713;51.624;4.924;2023-10-09T06:19:37;32.30;;;20.02;;
24547;SDS011;12713;51.624;4.924;2023-10-09T06:22:10;37.95;;;20.85;;
24547;SDS011;12713;51.624;4.924;2023-10-09T06:24:36;39.10;;;21.30;;
24547;SDS011;12713;51.624;4.924;2023-10-09T06:27:10;33.88;;;21.40;;
24547;SDS011;12713;51.624;4.924;2023-10-09T06:29:37;40.42;;;21.80;;
24547;SDS011;12713;51.624;4.924;2023-10-09T06:32:23;47.15;;;21.45;;
24547;SDS011;12713;51.624;4.924;2023-10-09T06:34:58;42.63;;;22.23;;
24547;SDS011;12713;51.624;4.924;2023-10-09T06:37:44;42.78;;;21.95;;
24547;SDS011;12713;51.624;4.924;2023-10-09T06:40:26;41.20;;;22.55;;
24547;SDS011;12713;51.624;4.924;2023-10-09T06:43:22;45.72;;;24.50;;
24547;SDS011;12713;51.624;4.924;2023-10-09T06:48:29;48.72;;;25.65;;
24547;SDS011;12713;51.624;4.924;2023-10-09T06:51:07;53.20;;;26.58;;
24547;SDS011;12713;51.624;4.924;2023-10-09T06:53:52;49.63;;;26.63;;
24547;SDS011;12713;51.624;4.924;2023-10-09T06:56:18;49.08;;;26.85;;
24547;SDS011;12713;51.624;4.924;2023-10-09T06:59:01;40.10;;;26.20;;
24547;SDS011;12713;51.624;4.924;2023-10-09T07:01:47;48.67;;;26.40;;
24547;SDS011;12713;51.624;4.924;2023-10-09T07:04:36;54.83;;;27.30;;
24547;SDS011;12713;51.624;4.924;2023-10-09T07:07:05;51.25;;;26.27;;
24547;SDS011;12713;51.624;4.924;2023-10-09T07:09:49;41.20;;;24.65;;
24547;SDS011;12713;51.624;4.924;2023-10-09T07:12:34;42.00;;;25.08;;
24547;SDS011;12713;51.624;4.924;2023-10-09T07:15:08;42.67;;;24.02;;
24547;SDS011;12713;51.624;4.924;2023-10-09T07:17:34;42.60;;;24.08;;
24547;SDS011;12713;51.624;4.924;2023-10-09T07:20:00;43.00;;;24.27;;
24547;SDS011;12713;51.624;4.924;2023-10-09T07:22:39;41.70;;;24.45;;
24547;SDS011;12713;51.624;4.924;2023-10-09T07:25:18;35.97;;;23.95;;
24547;SDS011;12713;51.624;4.924;2023-10-09T07:28:03;39.33;;;23.05;;
24547;SDS011;12713;51.624;4.924;2023-10-09T07:30:43;48.97;;;26.08;;
24547;SDS011;12713;51.624;4.924;2023-10-09T07:33:10;43.40;;;25.17;;
24547;SDS011;12713;51.624;4.924;2023-10-09T07:35:46;39.95;;;23.92;;
24547;SDS011;12713;51.624;4.924;2023-10-09T07:38:25;34.90;;;22.50;;
24547;SDS011;12713;51.624;4.924;2023-10-09T07:40:53;37.78;;;22.10;;
24547;SDS011;12713;51.624;4.924;2023-10-09T07:43:24;41.13;;;23.33;;
24547;SDS011;12713;51.624;4.924;2023-10-09T07:46:11;37.90;;;23.02;;
24547;SDS011;12713;51.624;4.924;2023-10-09T07:48:56;43.75;;;24.77;;
24547;SDS011;12713;51.624;4.924;2023-10-09T07:51:23;39.65;;;24.05;;
24547;SDS011;12713;51.624;4.924;2023-10-09T07:53:56;40.25;;;23.00;;
24547;SDS011;12713;51.624;4.924;2023-10-09T07:56:43;35.78;;;22.15;;
24547;SDS011;12713;51.624;4.924;2023-10-09T07:59:15;38.90;;;23.73;;
24547;SDS011;12713;51.624;4.924;2023-10-09T08:01:45;42.22;;;24.40;;
24547;SDS011;12713;51.624;4.924;2023-10-09T08:04:26;39.13;;;24.92;;
24547;SDS011;12713;51.624;4.924;2023-10-09T08:07:13;40.17;;;22.73;;
24547;SDS011;12713;51.624;4.924;2023-10-09T08:09:50;39.97;;;23.42;;
24547;SDS011;12713;51.624;4.924;2023-10-09T08:12:37;37.45;;;22.02;;
24547;SDS011;12713;51.624;4.924;2023-10-09T08:15:09;35.35;;;24.55;;
24547;SDS011;12713;51.624;4.924;2023-10-09T08:17:45;39.08;;;23.83;;
24547;SDS011;12713;51.624;4.924;2023-10-09T08:20:38;40.33;;;22.85;;
24547;SDS011;12713;51.624;4.924;2023-10-09T08:23:36;42.08;;;23.83;;
24547;SDS011;12713;51.624;4.924;2023-10-09T08:26:15;43.35;;;23.27;;
24547;SDS011;12713;51.624;4.924;2023-10-09T08:28:54;44.67;;;24.70;;
24547;SDS011;12713;51.624;4.924;2023-10-09T08:31:40;38.92;;;22.15;;
24547;SDS011;12713;51.624;4.924;2023-10-09T08:34:12;37.17;;;22.95;;
24547;SDS011;12713;51.624;4.924;2023-10-09T08:36:49;38.90;;;21.27;;
24547;SDS011;12713;51.624;4.924;2023-10-09T08:39:21;39.58;;;23.42;;
24547;SDS011;12713;51.624;4.924;2023-10-09T08:44:19;38.08;;;22.52;;
24547;SDS011;12713;51.624;4.924;2023-10-09T08:46:48;39.35;;;20.10;;
24547;SDS011;12713;51.624;4.924;2023-10-09T08:49:15;34.63;;;20.48;;
24547;SDS011;12713;51.624;4.924;2023-10-09T08:51:42;29.95;;;20.17;;
24547;SDS011;12713;51.624;4.924;2023-10-09T08:54:11;36.67;;;21.10;;
24547;SDS011;12713;51.624;4.924;2023-10-09T08:56:39;31.98;;;18.33;;
24547;SDS011;12713;51.624;4.924;2023-10-09T08:59:14;28.98;;;19.60;;
24547;SDS011;12713;51.624;4.924;2023-10-09T09:01:43;32.08;;;18.75;;
24547;SDS011;12713;51.624;4.924;2023-10-09T09:04:09;32.75;;;19.42;;
24547;SDS011;12713;51.624;4.924;2023-10-09T09:06:36;30.67;;;18.95;;
24547;SDS011;12713;51.624;4.924;2023-10-09T09:09:12;31.48;;;18.55;;
24547;SDS011;12713;51.624;4.924;2023-10-09T09:11:42;29.48;;;19.95;;
24547;SDS011;12713;51.624;4.924;2023-10-09T09:14:14;28.15;;;18.05;;
24547;SDS011;12713;51.624;4.924;2023-10-09T09:16:44;33.88;;;19.63;;
24547;SDS011;12713;51.624;4.924;2023-10-09T09:19:13;31.85;;;18.52;;
24547;SDS011;12713;51.624;4.924;2023-10-09T09:21:50;35.83;;;20.20;;
24547;SDS011;12713;51.624;4.924;2023-10-09T09:24:20;33.25;;;19.95;;
24547;SDS011;12713;51.624;4.924;2023-10-09T09:26:47;29.77;;;19.25;;
24547;SDS011;12713;51.624;4.924;2023-10-09T09:29:24;36.40;;;20.25;;
24547;SDS011;12713;51.624;4.924;2023-10-09T09:31:54;34.20;;;19.17;;
24547;SDS011;12713;51.624;4.924;2023-10-09T09:34:22;37.75;;;21.52;;
24547;SDS011;12713;51.624;4.924;2023-10-09T09:36:54;34.05;;;19.70;;
24547;SDS011;12713;51.624;4.924;2023-10-09T09:39:22;42.80;;;21.52;;
24547;SDS011;12713;51.624;4.924;2023-10-09T09:41:54;35.10;;;21.10;;
24547;SDS011;12713;51.624;4.924;2023-10-09T09:44:21;39.08;;;20.75;;
24547;SDS011;12713;51.624;4.924;2023-10-09T09:46:51;33.55;;;19.73;;
24547;SDS011;12713;51.624;4.924;2023-10-09T09:49:20;34.80;;;20.98;;
24547;SDS011;12713;51.624;4.924;2023-10-09T09:51:47;33.33;;;18.35;;
24547;SDS011;12713;51.624;4.924;2023-10-09T09:54:16;34.28;;;18.48;;
24547;SDS011;12713;51.624;4.924;2023-10-09T09:56:45;33.80;;;18.33;;
24547;SDS011;12713;51.624;4.924;2023-10-09T09:59:16;29.30;;;18.17;;
24547;SDS011;12713;51.624;4.924;2023-10-09T10:01:47;29.65;;;16.35;;
24547;SDS011;12713;51.624;4.924;2023-10-09T10:04:22;27.70;;;16.75;;
24547;SDS011;12713;51.624;4.924;2023-10-09T10:06:50;24.90;;;15.75;;
24547;SDS011;12713;51.624;4.924;2023-10-09T10:09:35;25.55;;;16.17;;
24547;SDS011;12713;51.624;4.924;2023-10-09T10:12:03;30.00;;;16.63;;
24547;SDS011;12713;51.624;4.924;2023-10-09T10:14:56;27.48;;;16.98;;
24547;SDS011;12713;51.624;4.924;2023-10-09T10:20:25;24.40;;;14.57;;
24547;SDS011;12713;51.624;4.924;2023-10-09T10:23:37;23.00;;;14.48;;
24547;SDS011;12713;51.624;4.924;2023-10-09T10:25:42;29.33;;;15.30;;
24547;SDS011;12713;51.624;4.924;2023-10-09T10:28:23;26.55;;;13.93;;
24547;SDS011;12713;51.624;4.924;2023-10-09T10:31:09;26.40;;;14.73;;
24547;SDS011;12713;51.624;4.924;2023-10-09T10:36:20;19.10;;;12.73;;
24547;SDS011;12713;51.624;4.924;2023-10-09T10:38:59;21.27;;;12.75;;
24547;SDS011;12713;51.624;4.924;2023-10-09T10:41:29;27.95;;;12.63;;
24547;SDS011;12713;51.624;4.924;2023-10-09T10:44:02;23.53;;;11.73;;
24547;SDS011;12713;51.624;4.924;2023-10-09T10:46:48;20.50;;;11.80;;
24547;SDS011;12713;51.624;4.924;2023-10-09T10:49:17;22.92;;;11.98;;
24547;SDS011;12713;51.624;4.924;2023-10-09T10:51:50;22.17;;;10.85;;
24547;SDS011;12713;51.624;4.924;2023-10-09T10:54:26;23.60;;;11.50;;
24547;SDS011;12713;51.624;4.924;2023-10-09T10:56:58;19.95;;;9.13;;
24547;SDS011;12713;51.624;4.924;2023-10-09T10:59:25;16.75;;;9.40;;
24547;SDS011;12713;51.624;4.924;2023-10-09T11:01:53;17.42;;;9.90;;
24547;SDS011;12713;51.624;4.924;2023-10-09T11:04:28;21.65;;;10.05;;
24547;SDS011;12713;51.624;4.924;2023-10-09T11:06:57;19.00;;;9.63;;
24547;SDS011;12713;51.624;4.924;2023-10-09T11:09:53;14.68;;;8.70;;
24547;SDS011;12713;51.624;4.924;2023-10-09T11:12:29;14.35;;;8.30;;
24547;SDS011;12713;51.624;4.924;2023-10-09T11:15:10;14.30;;;8.77;;
24547;SDS011;12713;51.624;4.924;2023-10-09T11:18:01;14.88;;;8.80;;
24547;SDS011;12713;51.624;4.924;2023-10-09T11:20:54;15.32;;;8.25;;
24547;SDS011;12713;51.624;4.924;2023-10-09T11:23:44;19.33;;;8.50;;
24547;SDS011;12713;51.624;4.924;2023-10-09T11:26:23;15.73;;;7.63;;
24547;SDS011;12713;51.624;4.924;2023-10-09T11:29:27;18.77;;;8.23;;
24547;SDS011;12713;51.624;4.924;2023-10-09T11:32:14;12.35;;;7.72;;
24547;SDS011;12713;51.624;4.924;2023-10-09T11:34:47;17.00;;;7.93;;
24547;SDS011;12713;51.624;4.924;2023-10-09T11:37:23;13.88;;;8.25;;
24547;SDS011;12713;51.624;4.924;2023-10-09T11:39:55;18.05;;;7.20;;
24547;SDS011;12713;51.624;4.924;2023-10-09T11:42:22;16.13;;;7.72;;
24547;SDS011;12713;51.624;4.924;2023-10-09T11:45:23;13.73;;;6.82;;
24547;SDS011;12713;51.624;4.924;2023-10-09T11:47:53;15.45;;;7.63;;
24547;SDS011;12713;51.624;4.924;2023-10-09T11:53:42;16.27;;;8.25;;
24547;SDS011;12713;51.624;4.924;2023-10-09T11:56:10;15.82;;;7.75;;
24547;SDS011;12713;51.624;4.924;2023-10-09T11:58:39;16.05;;;7.85;;
24547;SDS011;12713;51.624;4.924;2023-10-09T12:01:14;12.55;;;7.05;;
24547;SDS011;12713;51.624;4.924;2023-10-09T12:03:45;14.05;;;6.97;;
24547;SDS011;12713;51.624;4.924;2023-10-09T12:06:15;18.15;;;9.00;;
24547;SDS011;12713;51.624;4.924;2023-10-09T12:08:46;14.90;;;7.15;;
24547;SDS011;12713;51.624;4.924;2023-10-09T12:11:12;14.43;;;7.13;;
24547;SDS011;12713;51.624;4.924;2023-10-09T12:13:47;11.02;;;6.90;;
24547;SDS011;12713;51.624;4.924;2023-10-09T12:16:13;12.88;;;6.70;;
24547;SDS011;12713;51.624;4.924;2023-10-09T12:18:40;13.13;;;6.65;;
24547;SDS011;12713;51.624;4.924;2023-10-09T12:21:07;12.23;;;7.50;;
24547;SDS011;12713;51.624;4.924;2023-10-09T12:23:40;15.23;;;7.00;;
24547;SDS011;12713;51.624;4.924;2023-10-09T12:26:09;16.52;;;7.22;;
24547;SDS011;12713;51.624;4.924;2023-10-09T12:28:39;14.05;;;6.30;;
24547;SDS011;12713;51.624;4.924;2023-10-09T12:31:08;11.25;;;6.00;;
24547;SDS011;12713;51.624;4.924;2023-10-09T12:33:34;17.35;;;6.82;;
24547;SDS011;12713;51.624;4.924;2023-10-09T12:36:10;12.25;;;6.25;;
24547;SDS011;12713;51.624;4.924;2023-10-09T12:38:42;11.57;;;7.05;;
24547;SDS011;12713;51.624;4.924;2023-10-09T12:41:11;10.20;;;6.65;;
24547;SDS011;12713;51.624;4.924;2023-10-09T12:43:50;11.82;;;6.57;;
24547;SDS011;12713;51.624;4.924;2023-10-09T12:46:17;10.40;;;6.50;;
24547;SDS011;12713;51.624;4.924;2023-10-09T12:48:48;10.05;;;6.10;;
24547;SDS011;12713;51.624;4.924;2023-10-09T12:51:14;13.25;;;6.70;;
24547;SDS011;12713;51.624;4.924;2023-10-09T12:53:43;12.02;;;6.10;;
24547;SDS011;12713;51.624;4.924;2023-10-09T12:56:10;13.88;;;6.40;;
24547;SDS011;12713;51.624;4.924;2023-10-09T12:58:43;11.82;;;6.07;;
24547;SDS011;12713;51.624;4.924;2023-10-09T13:01:18;11.98;;;6.13;;
24547;SDS011;12713;51.624;4.924;2023-10-09T13:03:45;10.75;;;6.28;;
24547;SDS011;12713;51.624;4.924;2023-10-09T13:06:14;18.05;;;6.53;;
24547;SDS011;12713;51.624;4.924;2023-10-09T13:08:40;13.07;;;5.70;;
24547;SDS011;12713;51.624;4.924;2023-10-09T13:11:10;15.50;;;7.47;;
24547;SDS011;12713;51.624;4.924;2023-10-09T13:13:37;15.82;;;5.82;;
24547;SDS011;12713;51.624;4.924;2023-10-09T13:16:11;11.35;;;5.60;;
24547;SDS011;12713;51.624;4.924;2023-10-09T13:18:45;14.45;;;5.75;;
24547;SDS011;12713;51.624;4.924;2023-10-09T13:21:24;13.33;;;5.93;;
24547;SDS011;12713;51.624;4.924;2023-10-09T13:23:51;14.32;;;5.40;;
24547;SDS011;12713;51.624;4.924;2023-10-09T13:26:20;9.25;;;5.63;;
24547;SDS011;12713;51.624;4.924;2023-10-09T13:28:53;12.80;;;5.70;;
24547;SDS011;12713;51.624;4.924;2023-10-09T13:31:20;12.90;;;6.38;;
24547;SDS011;12713;51.624;4.924;2023-10-09T13:33:50;12.27;;;5.88;;
24547;SDS011;12713;51.624;4.924;2023-10-09T13:36:20;12.75;;;6.60;;
24547;SDS011;12713;51.624;4.924;2023-10-09T13:39:02;10.73;;;5.63;;
24547;SDS011;12713;51.624;4.924;2023-10-09T13:41:51;16.17;;;6.18;;
24547;SDS011;12713;51.624;4.924;2023-10-09T13:44:24;13.02;;;6.72;;
24547;SDS011;12713;51.624;4.924;2023-10-09T13:46:52;13.38;;;6.10;;
24547;SDS011;12713;51.624;4.924;2023-10-09T13:49:18;12.68;;;6.15;;
24547;SDS011;12713;51.624;4.924;2023-10-09T13:51:47;10.95;;;6.05;;
24547;SDS011;12713;51.624;4.924;2023-10-09T13:54:15;9.38;;;5.32;;
24547;SDS011;12713;51.624;4.924;2023-10-09T13:56:55;9.13;;;5.22;;
24547;SDS011;12713;51.624;4.924;2023-10-09T13:59:21;8.30;;;5.43;;
24547;SDS011;12713;51.624;4.924;2023-10-09T14:01:50;13.48;;;6.03;;
24547;SDS011;12713;51.624;4.924;2023-10-09T14:04:19;15.68;;;5.45;;
24547;SDS011;12713;51.624;4.924;2023-10-09T14:06:45;13.77;;;5.63;;
24547;SDS011;12713;51.624;4.924;2023-10-09T14:09:12;12.75;;;5.60;;
24547;SDS011;12713;51.624;4.924;2023-10-09T14:11:59;15.55;;;6.30;;
24547;SDS011;12713;51.624;4.924;2023-10-09T14:17:06;15.05;;;5.55;;
24547;SDS011;12713;51.624;4.924;2023-10-09T14:19:37;12.38;;;5.57;;
24547;SDS011;12713;51.624;4.924;2023-10-09T14:22:03;16.83;;;5.75;;
24547;SDS011;12713;51.624;4.924;2023-10-09T14:24:36;12.73;;;6.50;;
24547;SDS011;12713;51.624;4.924;2023-10-09T14:27:03;12.70;;;6.05;;
24547;SDS011;12713;51.624;4.924;2023-10-09T14:29:31;13.73;;;6.40;;
24547;SDS011;12713;51.624;4.924;2023-10-09T14:32:05;15.95;;;6.78;;
24547;SDS011;12713;51.624;4.924;2023-10-09T14:34:31;18.45;;;6.20;;
24547;SDS011;12713;51.624;4.924;2023-10-09T14:37:01;12.25;;;5.90;;
24547;SDS011;12713;51.624;4.924;2023-10-09T14:39:31;13.63;;;6.47;;
24547;SDS011;12713;51.624;4.924;2023-10-09T14:42:01;13.07;;;5.72;;
24547;SDS011;12713;51.624;4.924;2023-10-09T14:44:35;15.45;;;6.30;;
24547;SDS011;12713;51.624;4.924;2023-10-09T14:47:04;15.63;;;6.97;;
24547;SDS011;12713;51.624;4.924;2023-10-09T14:49:31;13.25;;;6.30;;
24547;SDS011;12713;51.624;4.924;2023-10-09T14:52:02;11.90;;;6.30;;
24547;SDS011;12713;51.624;4.924;2023-10-09T14:54:34;14.80;;;6.97;;
24547;SDS011;12713;51.624;4.924;2023-10-09T14:57:00;15.07;;;6.57;;
24547;SDS011;12713;51.624;4.924;2023-10-09T14:59:31;13.27;;;6.82;;
24547;SDS011;12713;51.624;4.924;2023-10-09T15:01:58;13.35;;;6.38;;
24547;SDS011;12713;51.624;4.924;2023-10-09T15:04:24;12.70;;;7.03;;
24547;SDS011;12713;51.624;4.924;2023-10-09T15:06:53;12.93;;;7.43;;
24547;SDS011;12713;51.624;4.924;2023-10-09T15:09:19;15.02;;;6.85;;
24547;SDS011;12713;51.624;4.924;2023-10-09T15:11:56;11.18;;;6.32;;
24547;SDS011;12713;51.624;4.924;2023-10-09T15:14:23;18.20;;;6.82;;
24547;SDS011;12713;51.624;4.924;2023-10-09T15:16:49;14.23;;;5.80;;
24547;SDS011;12713;51.624;4.924;2023-10-09T15:19:15;12.02;;;5.50;;
24547;SDS011;12713;51.624;4.924;2023-10-09T15:21:41;12.57;;;5.72;;
24547;SDS011;12713;51.624;4.924;2023-10-09T15:24:12;10.27;;;5.20;;
24547;SDS011;12713;51.624;4.924;2023-10-09T15:26:44;16.23;;;5.88;;
24547;SDS011;12713;51.624;4.924;2023-10-09T15:29:18;15.93;;;6.22;;
24547;SDS011;12713;51.624;4.924;2023-10-09T15:31:48;10.80;;;5.43;;